createdAt,value
2019-04-04T00:01:08.505Z,21.03
2019-04-04T00:06:10.582Z,19.40
2019-04-04T00:11:12.592Z,20.47
2019-04-04T00:16:16.658Z,18.67
2019-04-04T00:21:18.947Z,24.60
2019-04-04T00:26:23.899Z,21.53
2019-04-04T00:31:28.630Z,26.73
2019-04-04T00:36:34.693Z,21.40
2019-04-04T00:41:36.408Z,27.07
2019-04-04T00:46:38.737Z,25.43
2019-04-04T00:51:40.798Z,27.40
2019-04-04T00:56:42.808Z,27.13
2019-04-04T01:01:47.885Z,26.60
2019-04-04T01:06:51.275Z,27.23
2019-04-04T01:11:53.276Z,27.90
2019-04-04T01:16:55.547Z,23.00
2019-04-04T01:21:57.542Z,20.30
2019-04-04T01:27:01.562Z,24.23
2019-04-04T01:32:06.457Z,21.93
2019-04-04T01:37:08.625Z,21.50
2019-04-04T01:42:10.832Z,25.83
2019-04-04T01:47:12.938Z,29.17
2019-04-04T01:52:15.283Z,18.70
2019-04-04T01:57:17.583Z,28.70
2019-04-04T02:02:19.669Z,25.13
2019-04-04T02:07:21.772Z,23.00
2019-04-04T02:12:25.587Z,19.17
2019-04-04T02:17:29.018Z,21.10
2019-04-04T02:22:34.011Z,21.23
2019-04-04T02:27:37.909Z,25.27
2019-04-04T02:32:43.864Z,22.63
2019-04-04T02:37:48.186Z,27.70
2019-04-04T02:42:53.955Z,19.33
2019-04-04T02:47:54.099Z,27.20
2019-04-04T02:52:56.226Z,23.13
2019-04-04T02:57:58.589Z,27.27
2019-04-04T03:03:00.659Z,23.10
2019-04-04T03:08:04.175Z,22.63
2019-04-04T03:13:06.461Z,28.33
2019-04-04T03:18:08.458Z,34.37
2019-04-04T03:23:10.533Z,33.40
2019-04-04T03:28:12.562Z,33.53
2019-04-04T03:33:16.828Z,34.70
2019-04-04T03:38:18.836Z,29.33
2019-04-04T03:43:20.935Z,33.93
2019-04-04T03:48:22.926Z,30.53
2019-04-04T03:53:24.952Z,40.67
2019-04-04T03:58:28.033Z,42.83
2019-04-04T04:03:32.910Z,35.70
2019-04-04T04:08:35.144Z,34.73
2019-04-04T04:13:37.407Z,26.77
2019-04-04T04:18:39.452Z,31.33
2019-04-04T04:23:41.489Z,34.43
2019-04-04T04:28:43.642Z,30.67
2019-04-04T04:33:46.272Z,33.50
2019-04-04T04:38:48.309Z,34.50
2019-04-04T04:43:50.533Z,33.60
2019-04-04T04:48:52.533Z,36.27
2019-04-04T04:53:54.520Z,34.20
2019-04-04T04:58:59.501Z,33.80
2019-04-04T05:04:02.680Z,33.13
2019-04-04T05:09:05.462Z,33.07
2019-04-04T05:14:07.649Z,32.17
2019-04-04T05:19:09.658Z,35.40
2019-04-04T05:24:11.722Z,30.87
2019-04-04T05:29:14.160Z,31.33
2019-04-04T05:34:16.568Z,29.53
2019-04-04T05:39:18.773Z,28.67
2019-04-04T05:44:23.676Z,27.83
2019-04-04T05:49:26.294Z,31.73
2019-04-04T05:54:28.334Z,32.03
2019-04-04T05:59:30.359Z,32.20
2019-04-04T06:04:35.246Z,29.40
2019-04-04T06:09:37.565Z,27.07
2019-04-04T06:14:46.171Z,25.87
2019-04-04T06:19:48.240Z,27.80
2019-04-04T06:24:52.148Z,27.17
2019-04-04T06:29:54.457Z,22.50
2019-04-04T06:34:56.854Z,24.00
2019-04-04T06:45:16.159Z,22.03
2019-04-04T06:50:18.580Z,23.13
2019-04-04T06:55:20.576Z,23.37
2019-04-04T07:00:25.320Z,22.63
2019-04-04T07:05:28.537Z,20.80
2019-04-04T07:10:34.845Z,26.13
2019-04-04T07:15:46.209Z,24.83
2019-04-04T07:20:40.950Z,18.73
2019-04-04T07:25:43.074Z,21.13
2019-04-04T07:30:45.067Z,18.50
2019-04-04T07:35:49.616Z,20.40
2019-04-04T07:40:51.706Z,23.67
2019-04-04T07:45:55.269Z,24.03
2019-04-04T07:50:58.561Z,21.13
2019-04-04T07:56:02.709Z,18.70
2019-04-04T08:01:04.813Z,17.50
2019-04-04T08:06:12.199Z,18.83
2019-04-04T08:11:14.208Z,21.40
2019-04-04T08:16:16.442Z,16.67
2019-04-04T08:21:18.489Z,16.03
2019-04-04T08:26:20.483Z,18.10
2019-04-04T08:31:22.471Z,18.93
2019-04-04T08:36:24.664Z,19.37
2019-04-04T08:41:26.774Z,19.13
2019-04-04T08:46:29.217Z,21.23
2019-04-04T08:51:31.274Z,16.97
2019-04-04T08:56:33.677Z,20.13
2019-04-04T09:01:35.999Z,17.67
2019-04-04T09:06:38.272Z,15.07
2019-04-04T09:11:40.352Z,15.63
2019-04-04T09:16:44.747Z,16.57
2019-04-04T09:21:47.008Z,16.97
2019-04-04T09:26:49.593Z,14.93
2019-04-04T09:31:54.167Z,15.37
2019-04-04T09:36:57.566Z,16.23
2019-04-04T09:41:59.599Z,14.80
2019-04-04T09:47:05.600Z,18.40
2019-04-04T09:52:05.769Z,17.00
2019-04-04T09:57:07.756Z,15.47
2019-04-04T10:02:12.813Z,17.67
2019-04-04T10:07:15.251Z,15.50
2019-04-04T10:12:17.690Z,15.87
2019-04-04T10:17:19.924Z,18.13
2019-04-04T10:22:21.973Z,21.20
2019-04-04T10:27:26.091Z,22.53
2019-04-04T10:32:28.122Z,14.87
2019-04-04T10:37:30.346Z,15.20
2019-04-04T10:42:33.910Z,15.87
2019-04-04T10:47:36.293Z,15.47
2019-04-04T10:52:38.297Z,15.50
2019-04-04T10:57:42.783Z,13.93
2019-04-04T11:02:44.807Z,12.73
2019-04-04T11:07:47.287Z,15.47
2019-04-04T11:12:49.349Z,13.87
2019-04-04T11:17:53.821Z,15.03
2019-04-04T11:22:55.824Z,15.20
2019-04-04T11:27:57.843Z,17.77
2019-04-04T11:32:59.847Z,11.30
2019-04-04T11:38:01.861Z,16.00
2019-04-04T11:43:03.889Z,13.47
2019-04-04T11:48:05.884Z,13.60
2019-04-04T11:53:08.045Z,14.57
2019-04-04T11:58:10.139Z,15.20
2019-04-04T12:03:12.277Z,13.20
2019-04-04T12:08:16.042Z,10.87
2019-04-04T12:13:18.164Z,13.83
2019-04-04T12:18:26.381Z,16.63
2019-04-04T12:23:28.467Z,16.03
2019-04-04T12:28:30.459Z,11.20
2019-04-04T12:33:32.508Z,13.80
2019-04-04T12:38:34.704Z,12.53
2019-04-04T12:43:38.947Z,17.43
2019-04-04T12:48:41.036Z,10.83
2019-04-04T12:53:43.154Z,13.33
2019-04-04T12:58:45.672Z,13.27
2019-04-04T13:03:47.780Z,13.17
2019-04-04T13:08:51.594Z,10.97
2019-04-04T13:13:54.018Z,12.93
2019-04-04T13:18:56.085Z,17.57
2019-04-04T13:23:58.114Z,11.60
2019-04-04T13:29:00.435Z,13.20
2019-04-04T13:34:02.726Z,11.67
2019-04-04T13:39:08.730Z,11.80
2019-04-04T13:44:10.774Z,12.80
2019-04-04T13:49:12.830Z,11.20
2019-04-04T13:54:15.108Z,11.60
2019-04-04T13:59:17.125Z,13.83
2019-04-04T14:04:20.430Z,11.00
2019-04-04T14:09:22.949Z,9.80
2019-04-04T14:14:26.513Z,10.80
2019-04-04T14:19:31.441Z,12.20
2019-04-04T14:24:33.120Z,9.90
2019-04-04T14:29:35.154Z,13.00
2019-04-04T14:34:37.155Z,13.50
2019-04-04T14:39:39.177Z,14.27
2019-04-04T14:44:41.181Z,15.80
2019-04-04T14:49:45.791Z,13.57
2019-04-04T14:54:47.321Z,11.17
2019-04-04T14:59:49.318Z,13.00
2019-04-04T15:04:51.634Z,11.33
2019-04-04T15:09:53.632Z,10.57
2019-04-04T15:14:56.748Z,11.47
2019-04-04T15:19:59.017Z,13.10
2019-04-04T15:25:01.417Z,13.73
2019-04-04T15:30:05.207Z,11.00
2019-04-04T15:35:07.513Z,12.47
2019-04-04T15:40:09.645Z,11.60
2019-04-04T15:45:12.286Z,13.83
2019-04-04T15:50:14.430Z,15.40
2019-04-04T15:55:16.582Z,15.00
2019-04-04T16:00:18.696Z,13.67
2019-04-04T16:05:20.749Z,14.13
2019-04-04T16:10:22.783Z,19.53
2019-04-04T16:15:25.259Z,16.07
2019-04-04T16:20:27.258Z,21.00
2019-04-04T16:25:29.439Z,12.80
2019-04-04T16:30:31.735Z,14.95
2019-04-04T16:35:33.861Z,12.00
2019-04-04T16:40:37.725Z,11.17
2019-04-04T16:45:39.938Z,11.00
2019-04-04T16:50:45.383Z,13.10
2019-04-04T16:55:47.895Z,11.60
2019-04-04T17:00:51.664Z,17.83
2019-04-04T17:05:53.980Z,14.70
2019-04-04T17:10:56.319Z,15.95
2019-04-04T17:16:00.279Z,15.30
2019-04-04T17:21:06.685Z,13.30
2019-04-04T17:26:09.019Z,15.73
2019-04-04T17:31:12.644Z,12.93
2019-04-04T17:36:15.269Z,18.37
2019-04-04T17:41:17.538Z,16.60
2019-04-04T17:46:21.939Z,24.03
2019-04-04T17:51:25.062Z,25.57
2019-04-04T17:56:27.660Z,31.43
2019-04-04T18:01:29.666Z,32.83
2019-04-04T18:06:31.864Z,32.70
2019-04-04T18:11:34.261Z,34.00
2019-04-04T18:16:36.266Z,34.67
2019-04-04T18:21:38.322Z,36.93
2019-04-04T18:26:41.696Z,38.53
2019-04-04T18:31:46.450Z,36.53
2019-04-04T18:36:48.662Z,39.63
2019-04-04T18:41:50.727Z,37.17
2019-04-04T18:46:53.826Z,37.40
2019-04-04T18:51:55.918Z,33.63
2019-04-04T18:56:59.316Z,35.20
2019-04-04T19:02:06.518Z,32.80
2019-04-04T19:07:12.339Z,31.77
2019-04-04T19:12:15.805Z,29.50
2019-04-04T19:17:18.057Z,29.30
2019-04-04T19:22:20.396Z,30.10
2019-04-04T19:27:23.019Z,31.10
2019-04-04T19:32:27.203Z,28.43
2019-04-04T19:37:29.370Z,25.73
2019-04-04T19:42:31.372Z,28.90
2019-04-04T19:47:36.155Z,28.30
2019-04-04T19:52:38.199Z,28.20
2019-04-04T19:57:40.200Z,30.40
2019-04-04T20:02:44.018Z,31.40
2019-04-04T20:07:50.164Z,29.80
2019-04-04T20:12:54.632Z,31.43
2019-04-04T20:17:57.541Z,31.87
2019-04-04T20:23:00.591Z,34.03
2019-04-04T20:28:02.700Z,35.43
2019-04-04T20:33:04.699Z,38.63
2019-04-04T20:38:07.287Z,34.73
2019-04-04T20:43:09.901Z,36.53
2019-04-04T20:48:13.878Z,36.10
2019-04-04T20:53:16.309Z,40.07
2019-04-04T20:58:19.755Z,38.33
2019-04-04T21:03:24.293Z,42.57
2019-04-04T21:08:26.491Z,44.20
2019-04-04T21:13:30.083Z,42.10
2019-04-04T21:18:34.668Z,43.57
2019-04-04T21:23:36.687Z,44.40
2019-04-04T21:28:41.392Z,45.27
2019-04-04T21:33:46.008Z,42.83
2019-04-04T21:38:49.923Z,49.77
2019-04-04T21:43:51.932Z,43.63
2019-04-04T21:48:53.941Z,45.53
2019-04-04T21:53:57.784Z,44.77
2019-04-04T21:59:02.842Z,44.23
2019-04-04T22:04:10.294Z,46.83
2019-04-04T22:09:22.444Z,45.93
2019-04-04T22:14:24.741Z,50.97
2019-04-04T22:19:26.771Z,47.97
2019-04-04T22:24:29.077Z,47.60
2019-04-04T22:29:34.273Z,45.87
2019-04-04T22:34:38.187Z,52.93
2019-04-04T22:39:40.258Z,51.37
2019-04-04T22:44:42.937Z,49.13
2019-04-04T22:49:45.013Z,54.00
2019-04-04T22:54:47.149Z,49.50
2019-04-04T22:59:54.105Z,51.37
2019-04-04T23:04:56.210Z,51.93
2019-04-04T23:10:00.700Z,48.30
2019-04-04T23:15:04.878Z,48.63
2019-04-04T23:20:07.586Z,43.67
2019-04-04T23:25:10.019Z,44.37
2019-04-04T23:30:13.496Z,40.23
2019-04-04T23:35:16.710Z,41.43
2019-04-04T23:40:20.945Z,41.90
2019-04-04T23:45:27.693Z,42.00
2019-04-04T23:50:32.878Z,35.93
2019-04-04T23:55:35.192Z,35.53
